sensor_id;sensor_type;location;lat;lon;timestamp;temperature;humidity
4604;DHT22;2314;48.272;11.562;2024-01-15T00:00:26;-5.10;99.90
4604;DHT22;2314;48.272;11.562;2024-01-15T00:02:53;-5.10;99.90
4604;DHT22;2314;48.272;11.562;2024-01-15T00:05:20;-5.20;99.90
4604;DHT22;2314;48.272;11.562;2024-01-15T00:07:47;-5.20;99.90
4604;DHT22;2314;48.272;11.562;2024-01-15T00:10:14;-5.10;99.90
4604;DHT22;2314;48.272;11.562;2024-01-15T00:12:41;-5.00;99.90
4604;DHT22;2314;48.272;11.562;2024-01-15T00:15:09;-4.80;99.90
4604;DHT22;2314;48.272;11.562;2024-01-15T00:17:38;-4.50;99.90
4604;DHT22;2314;48.272;11.562;2024-01-15T00:20:06;-4.20;99.90
4604;DHT22;2314;48.272;11.562;2024-01-15T00:22:34;-4.00;99.90
4604;DHT22;2314;48.272;11.562;2024-01-15T00:25:01;-3.80;99.90
4604;DHT22;2314;48.272;11.562;2024-01-15T00:27:28;-3.40;99.90
4604;DHT22;2314;48.272;11.562;2024-01-15T00:29:56;-3.10;99.90
4604;DHT22;2314;48.272;11.562;2024-01-15T00:32:23;-2.80;99.90
4604;DHT22;2314;48.272;11.562;2024-01-15T00:34:51;-2.60;99.90
4604;DHT22;2314;48.272;11.562;2024-01-15T00:37:18;-2.40;99.90
4604;DHT22;2314;48.272;11.562;2024-01-15T00:39:45;-2.20;99.90
4604;DHT22;2314;48.272;11.562;2024-01-15T00:42:13;-2.10;99.90
4604;DHT22;2314;48.272;11.562;2024-01-15T00:44:40;-2.00;99.90
4604;DHT22;2314;48.272;11.562;2024-01-15T00:47:07;-2.00;99.90
4604;DHT22;2314;48.272;11.562;2024-01-15T00:49:34;-2.00;99.90
4604;DHT22;2314;48.272;11.562;2024-01-15T00:52:02;-2.00;99.90
4604;DHT22;2314;48.272;11.562;2024-01-15T00:54:29;-2.10;99.90
4604;DHT22;2314;48.272;11.562;2024-01-15T00:56:56;-2.20;99.90
4604;DHT22;2314;48.272;11.562;2024-01-15T00:59:24;-2.30;99.90
4604;DHT22;2314;48.272;11.562;2024-01-15T01:01:51;-2.40;99.90
4604;DHT22;2314;48.272;11.562;2024-01-15T01:04:18;-2.40;99.90
4604;DHT22;2314;48.272;11.562;2024-01-15T01:06:45;-2.50;99.90
4604;DHT22;2314;48.272;11.562;2024-01-15T01:09:13;-2.50;99.90
4604;DHT22;2314;48.272;11.562;2024-01-15T01:11:40;-2.50;99.90
4604;DHT22;2314;48.272;11.562;2024-01-15T01:14:07;-2.50;99.90
4604;DHT22;2314;48.272;11.562;2024-01-15T01:16:34;-2.60;99.90
4604;DHT22;2314;48.272;11.562;2024-01-15T01:19:04;-2.60;99.90
4604;DHT22;2314;48.272;11.562;2024-01-15T01:21:32;-2.60;99.90
4604;DHT22;2314;48.272;11.562;2024-01-15T01:23:59;-2.60;99.90
4604;DHT22;2314;48.272;11.562;2024-01-15T01:26:28;-2.60;99.90
4604;DHT22;2314;48.272;11.562;2024-01-15T01:28:55;-2.60;99.90
4604;DHT22;2314;48.272;11.562;2024-01-15T01:31:22;-2.60;99.90
4604;DHT22;2314;48.272;11.562;2024-01-15T01:33:50;-2.60;99.90
4604;DHT22;2314;48.272;11.562;2024-01-15T01:36:17;-2.60;99.90
4604;DHT22;2314;48.272;11.562;2024-01-15T01:38:44;-2.60;99.90
4604;DHT22;2314;48.272;11.562;2024-01-15T01:41:11;-2.70;99.90
4604;DHT22;2314;48.272;11.562;2024-01-15T01:43:39;-2.70;99.90
4604;DHT22;2314;48.272;11.562;2024-01-15T01:46:06;-2.70;99.90
4604;DHT22;2314;48.272;11.562;2024-01-15T01:48:33;-2.60;99.90
4604;DHT22;2314;48.272;11.562;2024-01-15T01:51:02;-2.60;99.90
4604;DHT22;2314;48.272;11.562;2024-01-15T01:53:31;-2.70;99.90
4604;DHT22;2314;48.272;11.562;2024-01-15T01:55:59;-2.80;99.90
4604;DHT22;2314;48.272;11.562;2024-01-15T01:58:27;-2.70;99.90
4604;DHT22;2314;48.272;11.562;2024-01-15T02:00:55;-2.70;99.90
4604;DHT22;2314;48.272;11.562;2024-01-15T02:03:22;-2.70;99.90
4604;DHT22;2314;48.272;11.562;2024-01-15T02:05:49;-2.70;99.90
4604;DHT22;2314;48.272;11.562;2024-01-15T02:08:17;-2.80;99.90
4604;DHT22;2314;48.272;11.562;2024-01-15T02:10:44;-2.80;99.90
4604;DHT22;2314;48.272;11.562;2024-01-15T02:13:11;-2.90;99.90
4604;DHT22;2314;48.272;11.562;2024-01-15T02:15:38;-2.90;99.90
4604;DHT22;2314;48.272;11.562;2024-01-15T02:18:07;-2.90;99.90
4604;DHT22;2314;48.272;11.562;2024-01-15T02:20:34;-2.90;99.90
4604;DHT22;2314;48.272;11.562;2024-01-15T02:23:09;-2.90;99.90
4604;DHT22;2314;48.272;11.562;2024-01-15T02:25:38;-2.90;99.90
4604;DHT22;2314;48.272;11.562;2024-01-15T02:28:08;-3.00;99.90
4604;DHT22;2314;48.272;11.562;2024-01-15T02:30:37;-3.00;99.90
4604;DHT22;2314;48.272;11.562;2024-01-15T02:33:06;-3.10;99.90
4604;DHT22;2314;48.272;11.562;2024-01-15T02:35:33;-3.10;99.90
4604;DHT22;2314;48.272;11.562;2024-01-15T02:38:02;-3.00;99.90
4604;DHT22;2314;48.272;11.562;2024-01-15T02:40:31;-3.00;99.90
4604;DHT22;2314;48.272;11.562;2024-01-15T02:42:58;-3.00;99.90
4604;DHT22;2314;48.272;11.562;2024-01-15T02:45:25;-2.90;99.90
4604;DHT22;2314;48.272;11.562;2024-01-15T02:47:52;-2.90;99.90
4604;DHT22;2314;48.272;11.562;2024-01-15T02:50:19;-2.90;99.90
4604;DHT22;2314;48.272;11.562;2024-01-15T02:52:46;-2.80;99.90
4604;DHT22;2314;48.272;11.562;2024-01-15T02:55:14;-2.80;99.90
4604;DHT22;2314;48.272;11.562;2024-01-15T02:57:42;-2.70;99.90
4604;DHT22;2314;48.272;11.562;2024-01-15T03:00:10;-2.70;99.90
4604;DHT22;2314;48.272;11.562;2024-01-15T03:02:39;-2.70;99.90
4604;DHT22;2314;48.272;11.562;2024-01-15T03:05:06;-2.60;99.90
4604;DHT22;2314;48.272;11.562;2024-01-15T03:07:34;-2.60;99.90
4604;DHT22;2314;48.272;11.562;2024-01-15T03:10:01;-2.60;99.90
4604;DHT22;2314;48.272;11.562;2024-01-15T03:12:29;-2.60;99.90
4604;DHT22;2314;48.272;11.562;2024-01-15T03:14:57;-2.70;99.90
4604;DHT22;2314;48.272;11.562;2024-01-15T03:17:24;-2.80;99.90
4604;DHT22;2314;48.272;11.562;2024-01-15T03:19:51;-2.80;99.90
4604;DHT22;2314;48.272;11.562;2024-01-15T03:22:18;-2.90;99.90
4604;DHT22;2314;48.272;11.562;2024-01-15T03:24:45;-3.00;99.90
4604;DHT22;2314;48.272;11.562;2024-01-15T03:27:12;-3.00;99.90
4604;DHT22;2314;48.272;11.562;2024-01-15T03:29:39;-3.10;99.90
4604;DHT22;2314;48.272;11.562;2024-01-15T03:32:08;-3.10;99.90
4604;DHT22;2314;48.272;11.562;2024-01-15T03:34:35;-3.20;99.90
4604;DHT22;2314;48.272;11.562;2024-01-15T03:37:03;-3.20;99.90
4604;DHT22;2314;48.272;11.562;2024-01-15T03:39:30;-3.20;99.90
4604;DHT22;2314;48.272;11.562;2024-01-15T03:41:57;-3.30;99.90
4604;DHT22;2314;48.272;11.562;2024-01-15T03:44:24;-3.30;99.90
4604;DHT22;2314;48.272;11.562;2024-01-15T03:46:51;-3.40;99.90
4604;DHT22;2314;48.272;11.562;2024-01-15T03:49:20;-3.40;99.90
4604;DHT22;2314;48.272;11.562;2024-01-15T03:51:47;-3.50;99.90
4604;DHT22;2314;48.272;11.562;2024-01-15T03:54:14;-3.50;99.90
4604;DHT22;2314;48.272;11.562;2024-01-15T03:56:41;-3.60;99.90
4604;DHT22;2314;48.272;11.562;2024-01-15T03:59:08;-3.70;99.90
4604;DHT22;2314;48.272;11.562;2024-01-15T04:01:35;-3.70;99.90
4604;DHT22;2314;48.272;11.562;2024-01-15T04:04:02;-3.80;99.90
4604;DHT22;2314;48.272;11.562;2024-01-15T04:06:31;-3.90;99.90
4604;DHT22;2314;48.272;11.562;2024-01-15T04:08:59;-4.00;99.90
4604;DHT22;2314;48.272;11.562;2024-01-15T04:11:26;-3.90;99.90
4604;DHT22;2314;48.272;11.562;2024-01-15T04:13:53;-4.00;99.90
4604;DHT22;2314;48.272;11.562;2024-01-15T04:16:20;-4.00;99.90
4604;DHT22;2314;48.272;11.562;2024-01-15T04:18:47;-4.00;99.90
4604;DHT22;2314;48.272;11.562;2024-01-15T04:21:14;-4.00;99.90
4604;DHT22;2314;48.272;11.562;2024-01-15T04:23:42;-3.80;99.90
4604;DHT22;2314;48.272;11.562;2024-01-15T04:26:10;-3.70;99.90
4604;DHT22;2314;48.272;11.562;2024-01-15T04:28:37;-3.60;99.90
4604;DHT22;2314;48.272;11.562;2024-01-15T04:31:04;-3.40;99.90
4604;DHT22;2314;48.272;11.562;2024-01-15T04:33:31;-3.30;99.90
4604;DHT22;2314;48.272;11.562;2024-01-15T04:36:01;-3.20;99.90
4604;DHT22;2314;48.272;11.562;2024-01-15T04:38:29;-3.10;99.90
4604;DHT22;2314;48.272;11.562;2024-01-15T04:40:57;-3.00;99.90
4604;DHT22;2314;48.272;11.562;2024-01-15T04:43:24;-2.90;99.90
4604;DHT22;2314;48.272;11.562;2024-01-15T04:45:51;-2.80;99.90
4604;DHT22;2314;48.272;11.562;2024-01-15T04:48:18;-2.80;99.90
4604;DHT22;2314;48.272;11.562;2024-01-15T04:50:45;-2.80;99.90
4604;DHT22;2314;48.272;11.562;2024-01-15T04:53:13;-2.80;99.90
4604;DHT22;2314;48.272;11.562;2024-01-15T04:55:40;-2.80;99.90
4604;DHT22;2314;48.272;11.562;2024-01-15T04:58:08;-2.80;99.90
4604;DHT22;2314;48.272;11.562;2024-01-15T05:00:35;-2.80;99.90
4604;DHT22;2314;48.272;11.562;2024-01-15T05:03:03;-2.80;99.90
4604;DHT22;2314;48.272;11.562;2024-01-15T05:05:31;-2.70;99.90
4604;DHT22;2314;48.272;11.562;2024-01-15T05:07:58;-2.60;99.90
4604;DHT22;2314;48.272;11.562;2024-01-15T05:10:25;-2.50;99.90
4604;DHT22;2314;48.272;11.562;2024-01-15T05:12:52;-2.50;99.90
4604;DHT22;2314;48.272;11.562;2024-01-15T05:15:20;-2.40;99.90
4604;DHT22;2314;48.272;11.562;2024-01-15T05:17:47;-2.40;99.90
4604;DHT22;2314;48.272;11.562;2024-01-15T05:20:15;-2.40;99.90
4604;DHT22;2314;48.272;11.562;2024-01-15T05:22:42;-2.40;99.90
4604;DHT22;2314;48.272;11.562;2024-01-15T05:25:09;-2.40;99.90
4604;DHT22;2314;48.272;11.562;2024-01-15T05:27:36;-2.40;99.90
4604;DHT22;2314;48.272;11.562;2024-01-15T05:30:04;-2.40;99.90
4604;DHT22;2314;48.272;11.562;2024-01-15T05:32:33;-2.30;99.90
4604;DHT22;2314;48.272;11.562;2024-01-15T05:35:00;-2.30;99.90
4604;DHT22;2314;48.272;11.562;2024-01-15T05:37:27;-2.30;99.90
4604;DHT22;2314;48.272;11.562;2024-01-15T05:39:54;-2.30;99.90
4604;DHT22;2314;48.272;11.562;2024-01-15T05:42:21;-2.20;99.90
4604;DHT22;2314;48.272;11.562;2024-01-15T05:44:48;-2.10;99.90
4604;DHT22;2314;48.272;11.562;2024-01-15T05:47:15;-2.10;99.90
4604;DHT22;2314;48.272;11.562;2024-01-15T05:49:44;-2.00;99.90
4604;DHT22;2314;48.272;11.562;2024-01-15T05:52:11;-2.00;99.90
4604;DHT22;2314;48.272;11.562;2024-01-15T05:54:38;-2.00;99.90
4604;DHT22;2314;48.272;11.562;2024-01-15T05:57:05;-2.00;99.90
4604;DHT22;2314;48.272;11.562;2024-01-15T05:59:32;-1.90;99.90
4604;DHT22;2314;48.272;11.562;2024-01-15T06:02:01;-1.90;99.90
4604;DHT22;2314;48.272;11.562;2024-01-15T06:04:28;-1.80;99.90
4604;DHT22;2314;48.272;11.562;2024-01-15T06:06:56;-1.80;99.90
4604;DHT22;2314;48.272;11.562;2024-01-15T06:09:23;-1.80;99.90
4604;DHT22;2314;48.272;11.562;2024-01-15T06:11:50;-1.70;99.90
4604;DHT22;2314;48.272;11.562;2024-01-15T06:14:17;-1.70;99.90
4604;DHT22;2314;48.272;11.562;2024-01-15T06:16:44;-1.70;99.90
4604;DHT22;2314;48.272;11.562;2024-01-15T06:19:11;-1.70;99.90
4604;DHT22;2314;48.272;11.562;2024-01-15T06:21:38;-1.60;99.90
4604;DHT22;2314;48.272;11.562;2024-01-15T06:24:07;-1.60;99.90
4604;DHT22;2314;48.272;11.562;2024-01-15T06:26:35;-1.60;99.90
4604;DHT22;2314;48.272;11.562;2024-01-15T06:29:02;-1.60;99.90
4604;DHT22;2314;48.272;11.562;2024-01-15T06:31:29;-1.50;99.90
4604;DHT22;2314;48.272;11.562;2024-01-15T06:33:56;-1.50;99.90
4604;DHT22;2314;48.272;11.562;2024-01-15T06:36:23;-1.50;99.90
4604;DHT22;2314;48.272;11.562;2024-01-15T06:38:50;-1.50;99.90
4604;DHT22;2314;48.272;11.562;2024-01-15T06:41:18;-1.50;99.90
4604;DHT22;2314;48.272;11.562;2024-01-15T06:43:45;-1.50;99.90
4604;DHT22;2314;48.272;11.562;2024-01-15T06:46:12;-1.50;99.90
4604;DHT22;2314;48.272;11.562;2024-01-15T06:48:39;-1.50;99.90
4604;DHT22;2314;48.272;11.562;2024-01-15T06:51:06;-1.50;99.90
4604;DHT22;2314;48.272;11.562;2024-01-15T06:53:33;-1.40;99.90
4604;DHT22;2314;48.272;11.562;2024-01-15T06:56:00;-1.40;99.90
4604;DHT22;2314;48.272;11.562;2024-01-15T06:58:31;-1.50;99.90
4604;DHT22;2314;48.272;11.562;2024-01-15T07:00:58;-1.50;99.90
4604;DHT22;2314;48.272;11.562;2024-01-15T07:03:25;-1.40;99.90
4604;DHT22;2314;48.272;11.562;2024-01-15T07:05:52;-1.40;99.90
4604;DHT22;2314;48.272;11.562;2024-01-15T07:08:19;-1.40;99.90
4604;DHT22;2314;48.272;11.562;2024-01-15T07:10:46;-1.40;99.90
4604;DHT22;2314;48.272;11.562;2024-01-15T07:13:13;-1.40;99.90
4604;DHT22;2314;48.272;11.562;2024-01-15T07:15:41;-1.40;99.90
4604;DHT22;2314;48.272;11.562;2024-01-15T07:18:08;-1.40;99.90
4604;DHT22;2314;48.272;11.562;2024-01-15T07:20:35;-1.40;99.90
4604;DHT22;2314;48.272;11.562;2024-01-15T07:23:02;-1.30;99.90
4604;DHT22;2314;48.272;11.562;2024-01-15T07:25:30;-1.30;99.90
4604;DHT22;2314;48.272;11.562;2024-01-15T07:27:57;-1.20;99.90
4604;DHT22;2314;48.272;11.562;2024-01-15T07:30:24;-1.20;99.90
4604;DHT22;2314;48.272;11.562;2024-01-15T07:32:52;-1.20;99.90
4604;DHT22;2314;48.272;11.562;2024-01-15T07:35:19;-1.10;99.90
4604;DHT22;2314;48.272;11.562;2024-01-15T07:37:46;-1.10;99.90
4604;DHT22;2314;48.272;11.562;2024-01-15T07:40:13;-1.10;99.90
4604;DHT22;2314;48.272;11.562;2024-01-15T07:42:40;-1.10;99.90
4604;DHT22;2314;48.272;11.562;2024-01-15T07:45:08;-1.10;99.90
4604;DHT22;2314;48.272;11.562;2024-01-15T07:47:36;-1.00;99.90
4604;DHT22;2314;48.272;11.562;2024-01-15T07:50:05;-1.00;99.90
4604;DHT22;2314;48.272;11.562;2024-01-15T07:52:32;-1.00;99.90
4604;DHT22;2314;48.272;11.562;2024-01-15T07:54:59;-0.90;99.90
4604;DHT22;2314;48.272;11.562;2024-01-15T07:57:26;-0.90;99.90
4604;DHT22;2314;48.272;11.562;2024-01-15T07:59:53;-0.80;99.90
4604;DHT22;2314;48.272;11.562;2024-01-15T08:02:20;-0.80;99.90
4604;DHT22;2314;48.272;11.562;2024-01-15T08:04:48;-0.80;99.90
4604;DHT22;2314;48.272;11.562;2024-01-15T08:07:16;-0.80;99.90
4604;DHT22;2314;48.272;11.562;2024-01-15T08:09:44;-0.80;99.90
4604;DHT22;2314;48.272;11.562;2024-01-15T08:12:13;-0.70;99.90
4604;DHT22;2314;48.272;11.562;2024-01-15T08:14:40;-0.70;99.90
4604;DHT22;2314;48.272;11.562;2024-01-15T08:17:07;-0.60;99.90
4604;DHT22;2314;48.272;11.562;2024-01-15T08:19:34;-0.50;99.90
4604;DHT22;2314;48.272;11.562;2024-01-15T08:22:01;-0.50;99.90
4604;DHT22;2314;48.272;11.562;2024-01-15T08:24:29;-0.50;99.90
4604;DHT22;2314;48.272;11.562;2024-01-15T08:26:57;-0.50;99.90
4604;DHT22;2314;48.272;11.562;2024-01-15T08:29:24;-0.50;99.90
4604;DHT22;2314;48.272;11.562;2024-01-15T08:31:52;-0.40;99.90
4604;DHT22;2314;48.272;11.562;2024-01-15T08:34:19;-0.40;99.90
4604;DHT22;2314;48.272;11.562;2024-01-15T08:36:46;-0.40;99.90
4604;DHT22;2314;48.272;11.562;2024-01-15T08:39:13;-0.30;99.90
4604;DHT22;2314;48.272;11.562;2024-01-15T08:41:42;-0.30;99.90
4604;DHT22;2314;48.272;11.562;2024-01-15T08:44:09;-0.30;99.90
4604;DHT22;2314;48.272;11.562;2024-01-15T08:46:36;-0.30;99.90
4604;DHT22;2314;48.272;11.562;2024-01-15T08:49:03;-0.30;99.90
4604;DHT22;2314;48.272;11.562;2024-01-15T08:51:31;-0.30;99.90
4604;DHT22;2314;48.272;11.562;2024-01-15T08:53:58;-0.20;99.90
4604;DHT22;2314;48.272;11.562;2024-01-15T08:56:25;-0.10;99.90
4604;DHT22;2314;48.272;11.562;2024-01-15T08:58:54;0.00;99.90
4604;DHT22;2314;48.272;11.562;2024-01-15T09:01:22;0.00;99.90
4604;DHT22;2314;48.272;11.562;2024-01-15T09:03:52;0.10;99.90
4604;DHT22;2314;48.272;11.562;2024-01-15T09:06:19;0.20;99.90
4604;DHT22;2314;48.272;11.562;2024-01-15T09:08:47;0.20;99.90
4604;DHT22;2314;48.272;11.562;2024-01-15T09:11:14;0.20;99.90
4604;DHT22;2314;48.272;11.562;2024-01-15T09:13:41;0.20;99.90
4604;DHT22;2314;48.272;11.562;2024-01-15T09:16:10;0.20;99.90
4604;DHT22;2314;48.272;11.562;2024-01-15T09:18:37;0.20;99.90
4604;DHT22;2314;48.272;11.562;2024-01-15T09:21:04;0.20;99.90
4604;DHT22;2314;48.272;11.562;2024-01-15T09:23:31;0.10;99.90
4604;DHT22;2314;48.272;11.562;2024-01-15T09:25:58;0.10;99.90
4604;DHT22;2314;48.272;11.562;2024-01-15T09:28:25;0.20;99.90
4604;DHT22;2314;48.272;11.562;2024-01-15T09:30:53;0.20;99.90
4604;DHT22;2314;48.272;11.562;2024-01-15T09:33:21;0.20;99.90
4604;DHT22;2314;48.272;11.562;2024-01-15T09:35:48;0.10;99.90
4604;DHT22;2314;48.272;11.562;2024-01-15T09:38:15;0.20;99.90
4604;DHT22;2314;48.272;11.562;2024-01-15T09:40:45;0.20;99.90
4604;DHT22;2314;48.272;11.562;2024-01-15T09:43:14;0.30;99.90
4604;DHT22;2314;48.272;11.562;2024-01-15T09:45:42;0.40;99.90
4604;DHT22;2314;48.272;11.562;2024-01-15T09:48:09;0.40;99.90
4604;DHT22;2314;48.272;11.562;2024-01-15T09:50:39;0.40;99.90
4604;DHT22;2314;48.272;11.562;2024-01-15T09:53:06;0.40;99.90
4604;DHT22;2314;48.272;11.562;2024-01-15T09:55:33;0.50;99.90
4604;DHT22;2314;48.272;11.562;2024-01-15T09:58:01;0.60;99.90
4604;DHT22;2314;48.272;11.562;2024-01-15T10:00:29;0.50;99.90
4604;DHT22;2314;48.272;11.562;2024-01-15T10:02:57;0.50;99.90
4604;DHT22;2314;48.272;11.562;2024-01-15T10:05:25;0.60;99.90
4604;DHT22;2314;48.272;11.562;2024-01-15T10:07:56;0.50;99.90
4604;DHT22;2314;48.272;11.562;2024-01-15T10:10:24;0.50;99.90
4604;DHT22;2314;48.272;11.562;2024-01-15T10:12:51;0.60;99.90
4604;DHT22;2314;48.272;11.562;2024-01-15T10:15:18;0.60;99.90
4604;DHT22;2314;48.272;11.562;2024-01-15T10:17:48;0.60;99.90
4604;DHT22;2314;48.272;11.562;2024-01-15T10:20:16;0.60;99.90
4604;DHT22;2314;48.272;11.562;2024-01-15T10:22:45;0.70;99.90
4604;DHT22;2314;48.272;11.562;2024-01-15T10:25:14;0.70;99.90
4604;DHT22;2314;48.272;11.562;2024-01-15T10:27:42;0.70;99.90
4604;DHT22;2314;48.272;11.562;2024-01-15T10:30:09;0.70;99.90
4604;DHT22;2314;48.272;11.562;2024-01-15T10:32:39;0.80;99.90
4604;DHT22;2314;48.272;11.562;2024-01-15T10:35:07;0.90;99.90
4604;DHT22;2314;48.272;11.562;2024-01-15T10:37:35;1.00;99.90
4604;DHT22;2314;48.272;11.562;2024-01-15T10:40:02;1.10;99.90
4604;DHT22;2314;48.272;11.562;2024-01-15T10:42:32;1.20;99.90
4604;DHT22;2314;48.272;11.562;2024-01-15T10:44:59;1.40;99.90
4604;DHT22;2314;48.272;11.562;2024-01-15T10:47:26;1.70;99.90
4604;DHT22;2314;48.272;11.562;2024-01-15T10:49:54;1.80;99.90
4604;DHT22;2314;48.272;11.562;2024-01-15T10:52:22;2.00;99.90
4604;DHT22;2314;48.272;11.562;2024-01-15T10:54:49;2.00;99.90
4604;DHT22;2314;48.272;11.562;2024-01-15T10:57:17;2.10;99.90
4604;DHT22;2314;48.272;11.562;2024-01-15T10:59:46;2.20;99.90
4604;DHT22;2314;48.272;11.562;2024-01-15T11:02:14;2.40;99.90
4604;DHT22;2314;48.272;11.562;2024-01-15T11:04:41;2.50;99.90
4604;DHT22;2314;48.272;11.562;2024-01-15T11:07:08;2.40;99.90
4604;DHT22;2314;48.272;11.562;2024-01-15T11:09:37;2.30;99.90
4604;DHT22;2314;48.272;11.562;2024-01-15T11:12:09;2.20;99.90
4604;DHT22;2314;48.272;11.562;2024-01-15T11:14:39;2.20;99.90
4604;DHT22;2314;48.272;11.562;2024-01-15T11:17:11;2.10;99.90
4604;DHT22;2314;48.272;11.562;2024-01-15T11:19:42;1.70;99.90
4604;DHT22;2314;48.272;11.562;2024-01-15T11:22:11;1.30;99.90
4604;DHT22;2314;48.272;11.562;2024-01-15T11:25:15;1.00;99.90
4604;DHT22;2314;48.272;11.562;2024-01-15T11:27:43;1.20;99.90
4604;DHT22;2314;48.272;11.562;2024-01-15T11:30:13;1.40;99.90
4604;DHT22;2314;48.272;11.562;2024-01-15T11:32:42;1.60;99.90
4604;DHT22;2314;48.272;11.562;2024-01-15T11:35:10;1.70;99.90
4604;DHT22;2314;48.272;11.562;2024-01-15T11:37:57;1.80;99.90
4604;DHT22;2314;48.272;11.562;2024-01-15T11:40:37;1.90;99.90
4604;DHT22;2314;48.272;11.562;2024-01-15T11:43:05;2.20;99.90
4604;DHT22;2314;48.272;11.562;2024-01-15T11:45:35;2.60;99.90
4604;DHT22;2314;48.272;11.562;2024-01-15T11:48:14;3.00;99.90
4604;DHT22;2314;48.272;11.562;2024-01-15T11:50:43;3.10;99.90
4604;DHT22;2314;48.272;11.562;2024-01-15T11:53:17;3.10;99.90
4604;DHT22;2314;48.272;11.562;2024-01-15T11:55:51;3.20;99.90
4604;DHT22;2314;48.272;11.562;2024-01-15T11:58:19;3.40;99.90
4604;DHT22;2314;48.272;11.562;2024-01-15T12:00:48;3.30;99.90
4604;DHT22;2314;48.272;11.562;2024-01-15T12:03:16;3.20;99.90
4604;DHT22;2314;48.272;11.562;2024-01-15T12:05:43;3.30;99.90
4604;DHT22;2314;48.272;11.562;2024-01-15T12:08:10;3.60;99.90
4604;DHT22;2314;48.272;11.562;2024-01-15T12:10:38;3.60;99.90
4604;DHT22;2314;48.272;11.562;2024-01-15T12:13:10;3.80;99.90
4604;DHT22;2314;48.272;11.562;2024-01-15T12:15:38;3.70;99.90
4604;DHT22;2314;48.272;11.562;2024-01-15T12:18:08;3.40;99.90
4604;DHT22;2314;48.272;11.562;2024-01-15T12:20:37;3.10;99.90
4604;DHT22;2314;48.272;11.562;2024-01-15T12:23:04;2.90;99.90
4604;DHT22;2314;48.272;11.562;2024-01-15T12:25:32;2.80;99.90
4604;DHT22;2314;48.272;11.562;2024-01-15T12:28:00;2.80;99.90
4604;DHT22;2314;48.272;11.562;2024-01-15T12:30:28;2.80;99.90
4604;DHT22;2314;48.272;11.562;2024-01-15T12:32:57;3.00;99.90
4604;DHT22;2314;48.272;11.562;2024-01-15T12:35:24;3.20;99.90
4604;DHT22;2314;48.272;11.562;2024-01-15T12:37:54;3.30;99.90
4604;DHT22;2314;48.272;11.562;2024-01-15T12:40:22;3.60;99.90
4604;DHT22;2314;48.272;11.562;2024-01-15T12:42:51;3.70;99.90
4604;DHT22;2314;48.272;11.562;2024-01-15T12:45:17;3.80;99.90
4604;DHT22;2314;48.272;11.562;2024-01-15T12:47:46;3.90;99.90
4604;DHT22;2314;48.272;11.562;2024-01-15T12:50:13;3.80;99.90
4604;DHT22;2314;48.272;11.562;2024-01-15T12:52:41;3.70;99.90
4604;DHT22;2314;48.272;11.562;2024-01-15T12:55:10;3.40;99.90
4604;DHT22;2314;48.272;11.562;2024-01-15T12:57:37;3.30;99.90
4604;DHT22;2314;48.272;11.562;2024-01-15T13:00:06;3.00;99.90
4604;DHT22;2314;48.272;11.562;2024-01-15T13:02:37;2.80;99.90
4604;DHT22;2314;48.272;11.562;2024-01-15T13:05:06;2.70;99.90
4604;DHT22;2314;48.272;11.562;2024-01-15T13:07:34;2.60;99.90
4604;DHT22;2314;48.272;11.562;2024-01-15T13:10:01;2.60;99.90
4604;DHT22;2314;48.272;11.562;2024-01-15T13:12:29;2.50;99.90
4604;DHT22;2314;48.272;11.562;2024-01-15T13:14:58;2.60;99.90
4604;DHT22;2314;48.272;11.562;2024-01-15T13:17:25;2.60;99.90
4604;DHT22;2314;48.272;11.562;2024-01-15T13:19:52;2.60;99.90
4604;DHT22;2314;48.272;11.562;2024-01-15T13:22:20;2.50;99.90
4604;DHT22;2314;48.272;11.562;2024-01-15T13:24:47;2.30;99.90
4604;DHT22;2314;48.272;11.562;2024-01-15T13:27:14;2.20;99.90
4604;DHT22;2314;48.272;11.562;2024-01-15T13:29:44;2.10;99.90
4604;DHT22;2314;48.272;11.562;2024-01-15T13:32:13;2.10;99.90
4604;DHT22;2314;48.272;11.562;2024-01-15T13:34:44;2.00;99.90
4604;DHT22;2314;48.272;11.562;2024-01-15T13:37:11;1.90;99.90
4604;DHT22;2314;48.272;11.562;2024-01-15T13:39:38;1.90;99.90
4604;DHT22;2314;48.272;11.562;2024-01-15T13:42:05;1.80;99.90
4604;DHT22;2314;48.272;11.562;2024-01-15T13:44:32;1.80;99.90
4604;DHT22;2314;48.272;11.562;2024-01-15T13:47:01;1.80;99.90
4604;DHT22;2314;48.272;11.562;2024-01-15T13:49:28;1.80;99.90
4604;DHT22;2314;48.272;11.562;2024-01-15T13:51:55;1.70;99.90
4604;DHT22;2314;48.272;11.562;2024-01-15T13:54:22;1.60;99.90
4604;DHT22;2314;48.272;11.562;2024-01-15T13:56:49;1.60;99.90
4604;DHT22;2314;48.272;11.562;2024-01-15T13:59:16;1.60;99.90
4604;DHT22;2314;48.272;11.562;2024-01-15T14:01:43;1.60;99.90
4604;DHT22;2314;48.272;11.562;2024-01-15T14:04:13;1.60;99.90
4604;DHT22;2314;48.272;11.562;2024-01-15T14:06:41;1.60;99.90
4604;DHT22;2314;48.272;11.562;2024-01-15T14:09:08;1.60;99.90
4604;DHT22;2314;48.272;11.562;2024-01-15T14:11:36;1.70;99.90
4604;DHT22;2314;48.272;11.562;2024-01-15T14:14:03;1.60;99.90
4604;DHT22;2314;48.272;11.562;2024-01-15T14:16:30;1.60;99.90
4604;DHT22;2314;48.272;11.562;2024-01-15T14:18:57;1.60;99.90
4604;DHT22;2314;48.272;11.562;2024-01-15T14:21:26;1.60;99.90
4604;DHT22;2314;48.272;11.562;2024-01-15T14:23:52;1.50;99.90
4604;DHT22;2314;48.272;11.562;2024-01-15T14:26:19;1.50;99.90
4604;DHT22;2314;48.272;11.562;2024-01-15T14:28:46;1.40;99.90
4604;DHT22;2314;48.272;11.562;2024-01-15T14:31:14;1.40;99.90
4604;DHT22;2314;48.272;11.562;2024-01-15T14:33:41;1.30;99.90
4604;DHT22;2314;48.272;11.562;2024-01-15T14:36:08;1.30;99.90
4604;DHT22;2314;48.272;11.562;2024-01-15T14:38:37;1.30;99.90
4604;DHT22;2314;48.272;11.562;2024-01-15T14:41:04;1.30;99.90
4604;DHT22;2314;48.272;11.562;2024-01-15T14:43:31;1.20;99.90
4604;DHT22;2314;48.272;11.562;2024-01-15T14:45:58;1.10;99.90
4604;DHT22;2314;48.272;11.562;2024-01-15T14:48:25;1.00;99.90
4604;DHT22;2314;48.272;11.562;2024-01-15T14:50:52;1.00;99.90
4604;DHT22;2314;48.272;11.562;2024-01-15T14:53:19;1.00;99.90
4604;DHT22;2314;48.272;11.562;2024-01-15T14:55:48;0.90;99.90
4604;DHT22;2314;48.272;11.562;2024-01-15T14:58:15;1.00;99.90
4604;DHT22;2314;48.272;11.562;2024-01-15T15:00:42;1.00;99.90
4604;DHT22;2314;48.272;11.562;2024-01-15T15:03:11;0.90;99.90
4604;DHT22;2314;48.272;11.562;2024-01-15T15:05:41;1.00;99.90
4604;DHT22;2314;48.272;11.562;2024-01-15T15:08:08;1.00;99.90
4604;DHT22;2314;48.272;11.562;2024-01-15T15:10:37;1.00;99.90
4604;DHT22;2314;48.272;11.562;2024-01-15T15:13:07;1.00;99.90
4604;DHT22;2314;48.272;11.562;2024-01-15T15:15:35;1.00;99.90
4604;DHT22;2314;48.272;11.562;2024-01-15T15:18:02;1.00;99.90
4604;DHT22;2314;48.272;11.562;2024-01-15T15:20:29;1.00;99.90
4604;DHT22;2314;48.272;11.562;2024-01-15T15:22:56;0.90;99.90
4604;DHT22;2314;48.272;11.562;2024-01-15T15:25:23;0.90;99.90
4604;DHT22;2314;48.272;11.562;2024-01-15T15:27:51;0.90;99.90
4604;DHT22;2314;48.272;11.562;2024-01-15T15:30:20;0.90;99.90
4604;DHT22;2314;48.272;11.562;2024-01-15T15:32:47;0.80;99.90
4604;DHT22;2314;48.272;11.562;2024-01-15T15:35:14;0.80;99.90
4604;DHT22;2314;48.272;11.562;2024-01-15T15:37:41;0.80;99.90
4604;DHT22;2314;48.272;11.562;2024-01-15T15:40:09;0.80;99.90
4604;DHT22;2314;48.272;11.562;2024-01-15T15:42:36;0.80;99.90
4604;DHT22;2314;48.272;11.562;2024-01-15T15:45:04;0.70;99.90
4604;DHT22;2314;48.272;11.562;2024-01-15T15:47:33;0.70;99.90
4604;DHT22;2314;48.272;11.562;2024-01-15T15:50:00;0.70;99.90
4604;DHT22;2314;48.272;11.562;2024-01-15T15:52:27;0.70;99.90
4604;DHT22;2314;48.272;11.562;2024-01-15T15:54:55;0.60;99.90